sensor_id;sensor_type;location;lat;lon;timestamp;pressure;altitude;pressure_sealevel;temperature;humidity
48517;BME280;34310;51.904;4.256;2023-03-25T00:01:15;100190.97;;;16.82;60.34
48517;BME280;34310;51.904;4.256;2023-03-25T00:03:42;100186.59;;;16.81;60.45
48517;BME280;34310;51.904;4.256;2023-03-25T00:06:17;100190.94;;;16.81;60.37
48517;BME280;34310;51.904;4.256;2023-03-25T00:08:44;100187.38;;;16.79;60.47
48517;BME280;34310;51.904;4.256;2023-03-25T00:11:12;100194.38;;;16.80;60.46
48517;BME280;34310;51.904;4.256;2023-03-25T00:13:39;100189.09;;;16.78;60.63
48517;BME280;34310;51.904;4.256;2023-03-25T00:16:08;100194.31;;;16.78;60.30
48517;BME280;34310;51.904;4.256;2023-03-25T00:18:36;100188.13;;;16.76;60.35
48517;BME280;34310;51.904;4.256;2023-03-25T00:21:05;100181.19;;;16.77;60.43
48517;BME280;34310;51.904;4.256;2023-03-25T00:23:37;100184.72;;;16.77;60.47
48517;BME280;34310;51.904;4.256;2023-03-25T00:28:51;100181.09;;;16.73;60.54
48517;BME280;34310;51.904;4.256;2023-03-25T00:31:18;100188.91;;;16.73;60.35
48517;BME280;34310;51.904;4.256;2023-03-25T00:33:45;100181.97;;;16.74;60.34
48517;BME280;34310;51.904;4.256;2023-03-25T00:36:13;100176.72;;;16.72;60.50
48517;BME280;34310;51.904;4.256;2023-03-25T00:38:41;100181.03;;;16.72;60.51
48517;BME280;34310;51.904;4.256;2023-03-25T00:41:16;100173.16;;;16.70;60.50
48517;BME280;34310;51.904;4.256;2023-03-25T00:43:51;100181.88;;;16.71;60.27
48517;BME280;34310;51.904;4.256;2023-03-25T00:46:18;100170.50;;;16.69;60.57
48517;BME280;34310;51.904;4.256;2023-03-25T00:48:46;100174.84;;;16.68;60.36
48517;BME280;34310;51.904;4.256;2023-03-25T00:51:14;100181.78;;;16.68;60.29
48517;BME280;34310;51.904;4.256;2023-03-25T00:53:50;100181.72;;;16.66;60.36
48517;BME280;34310;51.904;4.256;2023-03-25T00:56:20;100182.50;;;16.65;60.56
48517;BME280;34310;51.904;4.256;2023-03-25T00:58:47;100183.44;;;16.66;60.51
48517;BME280;34310;51.904;4.256;2023-03-25T01:01:18;100188.56;;;16.64;60.35
48517;BME280;34310;51.904;4.256;2023-03-25T01:03:50;100174.66;;;16.64;60.30
48517;BME280;34310;51.904;4.256;2023-03-25T01:06:34;100178.97;;;16.63;60.47
48517;BME280;34310;51.904;4.256;2023-03-25T01:09:03;100171.16;;;16.63;60.51
48517;BME280;34310;51.904;4.256;2023-03-25T01:11:32;100179.81;;;16.62;60.44
48517;BME280;34310;51.904;4.256;2023-03-25T01:14:02;100174.53;;;16.61;60.53
48517;BME280;34310;51.904;4.256;2023-03-25T01:16:30;100166.72;;;16.61;60.49
48517;BME280;34310;51.904;4.256;2023-03-25T01:18:58;100170.09;;;16.58;60.47
48517;BME280;34310;51.904;4.256;2023-03-25T01:21:25;100161.41;;;16.58;60.56
48517;BME280;34310;51.904;4.256;2023-03-25T01:23:53;100162.28;;;16.58;60.55
48517;BME280;34310;51.904;4.256;2023-03-25T01:26:20;100165.72;;;16.57;60.39
48517;BME280;34310;51.904;4.256;2023-03-25T01:28:47;100163.13;;;16.57;60.54
48517;BME280;34310;51.904;4.256;2023-03-25T01:31:15;100166.56;;;16.56;60.36
48517;BME280;34310;51.904;4.256;2023-03-25T01:33:42;100166.56;;;16.56;60.37
48517;BME280;34310;51.904;4.256;2023-03-25T01:36:10;100152.66;;;16.56;60.48
48517;BME280;34310;51.904;4.256;2023-03-25T01:38:40;100160.41;;;16.54;60.41
48517;BME280;34310;51.904;4.256;2023-03-25T01:41:08;100155.19;;;16.54;60.58
48517;BME280;34310;51.904;4.256;2023-03-25T01:43:36;100154.31;;;16.54;60.53
48517;BME280;34310;51.904;4.256;2023-03-25T01:46:03;100156.03;;;16.53;60.49
48517;BME280;34310;51.904;4.256;2023-03-25T01:48:34;100151.66;;;16.52;60.61
48517;BME280;34310;51.904;4.256;2023-03-25T01:51:13;100159.47;;;16.52;60.43
48517;BME280;34310;51.904;4.256;2023-03-25T01:53:43;100154.25;;;16.52;60.59
48517;BME280;34310;51.904;4.256;2023-03-25T01:56:14;100145.50;;;16.50;60.45
48517;BME280;34310;51.904;4.256;2023-03-25T01:58:43;100155.09;;;16.51;60.56
48517;BME280;34310;51.904;4.256;2023-03-25T02:01:12;100145.50;;;16.50;60.51
48517;BME280;34310;51.904;4.256;2023-03-25T02:03:41;100148.06;;;16.49;60.44
48517;BME280;34310;51.904;4.256;2023-03-25T02:06:19;100147.16;;;16.48;60.55
48517;BME280;34310;51.904;4.256;2023-03-25T02:08:46;100148.84;;;16.48;60.52
48517;BME280;34310;51.904;4.256;2023-03-25T02:11:15;100158.38;;;16.47;60.43
48517;BME280;34310;51.904;4.256;2023-03-25T02:13:42;100146.19;;;16.46;60.50
48517;BME280;34310;51.904;4.256;2023-03-25T02:16:27;100146.19;;;16.46;60.36
48517;BME280;34310;51.904;4.256;2023-03-25T02:22:21;100134.88;;;16.46;60.60
48517;BME280;34310;51.904;4.256;2023-03-25T02:33:29;100133.84;;;16.40;60.64
48517;BME280;34310;51.904;4.256;2023-03-25T02:41:57;100127.75;;;16.40;60.52
48517;BME280;34310;51.904;4.256;2023-03-25T02:44:38;100113.78;;;16.38;60.67
48517;BME280;34310;51.904;4.256;2023-03-25T02:47:10;100104.19;;;16.37;60.44
48517;BME280;34310;51.904;4.256;2023-03-25T02:49:45;100114.59;;;16.37;60.45
48517;BME280;34310;51.904;4.256;2023-03-25T02:54:49;100111.13;;;16.36;60.67
48517;BME280;34310;51.904;4.256;2023-03-25T02:57:19;100111.94;;;16.35;60.48
48517;BME280;34310;51.904;4.256;2023-03-25T02:59:50;100088.44;;;16.34;60.60
48517;BME280;34310;51.904;4.256;2023-03-25T03:02:22;100107.56;;;16.34;60.60
48517;BME280;34310;51.904;4.256;2023-03-25T03:04:54;100098.88;;;16.34;60.67
48517;BME280;34310;51.904;4.256;2023-03-25T03:07:42;100099.75;;;16.34;60.57
48517;BME280;34310;51.904;4.256;2023-03-25T03:10:35;100106.69;;;16.34;60.61
48517;BME280;34310;51.904;4.256;2023-03-25T03:16:16;100110.97;;;16.32;60.44
48517;BME280;34310;51.904;4.256;2023-03-25T03:21:53;100092.66;;;16.30;60.66
48517;BME280;34310;51.904;4.256;2023-03-25T03:24:49;100109.13;;;16.29;60.72
48517;BME280;34310;51.904;4.256;2023-03-25T03:27:31;100101.31;;;16.29;60.61
48517;BME280;34310;51.904;4.256;2023-03-25T03:33:18;100108.19;;;16.27;60.66
48517;BME280;34310;51.904;4.256;2023-03-25T03:36:21;100096.88;;;16.27;60.58
48517;BME280;34310;51.904;4.256;2023-03-25T03:39:37;100110.75;;;16.26;60.64
48517;BME280;34310;51.904;4.256;2023-03-25T03:41:49;100119.38;;;16.25;60.64
48517;BME280;34310;51.904;4.256;2023-03-25T03:44:20;100115.91;;;16.24;60.64
48517;BME280;34310;51.904;4.256;2023-03-25T03:46:58;100121.09;;;16.24;60.59
48517;BME280;34310;51.904;4.256;2023-03-25T03:49:38;100133.25;;;16.24;60.62
48517;BME280;34310;51.904;4.256;2023-03-25T03:52:15;100128.88;;;16.23;60.57
48517;BME280;34310;51.904;4.256;2023-03-25T03:54:56;100134.97;;;16.23;60.71
48517;BME280;34310;51.904;4.256;2023-03-25T03:57:32;100124.50;;;16.22;60.85
48517;BME280;34310;51.904;4.256;2023-03-25T04:02:49;100127.94;;;16.21;60.62
48517;BME280;34310;51.904;4.256;2023-03-25T04:05:19;100131.38;;;16.20;60.70
48517;BME280;34310;51.904;4.256;2023-03-25T04:07:50;100114.00;;;16.20;60.75
48517;BME280;34310;51.904;4.256;2023-03-25T04:12:56;100118.25;;;16.18;60.56
48517;BME280;34310;51.904;4.256;2023-03-25T04:15:26;100116.47;;;16.17;60.76
48517;BME280;34310;51.904;4.256;2023-03-25T04:17:53;100128.66;;;16.18;60.74
48517;BME280;34310;51.904;4.256;2023-03-25T04:20:23;100125.19;;;16.18;60.84
48517;BME280;34310;51.904;4.256;2023-03-25T04:22:52;100119.91;;;16.16;60.88
48517;BME280;34310;51.904;4.256;2023-03-25T04:25:20;100125.13;;;16.16;60.74
48517;BME280;34310;51.904;4.256;2023-03-25T04:27:48;100121.63;;;16.16;60.63
48517;BME280;34310;51.904;4.256;2023-03-25T04:30:15;100127.66;;;16.15;60.73
48517;BME280;34310;51.904;4.256;2023-03-25T04:32:45;100140.69;;;16.15;60.66
48517;BME280;34310;51.904;4.256;2023-03-25T04:35:14;100139.81;;;16.14;60.69
48517;BME280;34310;51.904;4.256;2023-03-25T04:37:43;100136.31;;;16.14;60.80
48517;BME280;34310;51.904;4.256;2023-03-25T04:40:16;100141.53;;;16.14;60.62
48517;BME280;34310;51.904;4.256;2023-03-25T04:42:45;100140.63;;;16.13;60.77
48517;BME280;34310;51.904;4.256;2023-03-25T04:45:14;100136.25;;;16.12;60.58
48517;BME280;34310;51.904;4.256;2023-03-25T04:47:45;100134.50;;;16.11;60.65
48517;BME280;34310;51.904;4.256;2023-03-25T04:50:23;100144.03;;;16.10;60.79
48517;BME280;34310;51.904;4.256;2023-03-25T04:52:51;100144.03;;;16.10;60.59
48517;BME280;34310;51.904;4.256;2023-03-25T04:55:20;100153.56;;;16.10;60.59
48517;BME280;34310;51.904;4.256;2023-03-25T04:57:49;100151.78;;;16.09;60.67
48517;BME280;34310;51.904;4.256;2023-03-25T05:00:22;100152.59;;;16.08;60.58
48517;BME280;34310;51.904;4.256;2023-03-25T05:02:52;100151.72;;;16.07;60.61
48517;BME280;34310;51.904;4.256;2023-03-25T05:05:23;100150.84;;;16.07;60.61
48517;BME280;34310;51.904;4.256;2023-03-25T05:07:53;100155.16;;;16.06;60.60
48517;BME280;34310;51.904;4.256;2023-03-25T05:10:22;100136.94;;;16.06;60.82
48517;BME280;34310;51.904;4.256;2023-03-25T05:12:56;100147.34;;;16.06;60.74
48517;BME280;34310;51.904;4.256;2023-03-25T05:15:24;100155.09;;;16.05;60.67
48517;BME280;34310;51.904;4.256;2023-03-25T05:17:52;100142.91;;;16.04;60.57
48517;BME280;34310;51.904;4.256;2023-03-25T05:20:20;100154.22;;;16.04;60.75
48517;BME280;34310;51.904;4.256;2023-03-25T05:22:48;100161.13;;;16.04;60.64
48517;BME280;34310;51.904;4.256;2023-03-25T05:25:15;100152.44;;;16.03;60.71
48517;BME280;34310;51.904;4.256;2023-03-25T05:27:44;100157.59;;;16.02;60.54
48517;BME280;34310;51.904;4.256;2023-03-25T05:30:12;100160.19;;;16.02;60.68
48517;BME280;34310;51.904;4.256;2023-03-25T05:32:42;100161.06;;;16.02;60.57
48517;BME280;34310;51.904;4.256;2023-03-25T05:35:12;100162.75;;;16.00;60.84
48517;BME280;34310;51.904;4.256;2023-03-25T05:37:39;100176.66;;;16.01;60.75
48517;BME280;34310;51.904;4.256;2023-03-25T05:40:07;100172.28;;;16.00;60.85
48517;BME280;34310;51.904;4.256;2023-03-25T05:42:41;100164.41;;;15.98;60.78
48517;BME280;34310;51.904;4.256;2023-03-25T05:45:16;100162.63;;;15.97;60.68
48517;BME280;34310;51.904;4.256;2023-03-25T05:47:43;100171.31;;;15.98;60.80
48517;BME280;34310;51.904;4.256;2023-03-25T05:50:10;100175.66;;;15.97;60.72
48517;BME280;34310;51.904;4.256;2023-03-25T05:52:38;100172.97;;;15.96;60.75
48517;BME280;34310;51.904;4.256;2023-03-25T05:55:13;100186.06;;;15.97;60.68
48517;BME280;34310;51.904;4.256;2023-03-25T05:57:41;100169.50;;;15.95;60.73
48517;BME280;34310;51.904;4.256;2023-03-25T06:00:10;100186.81;;;15.95;60.87
48517;BME280;34310;51.904;4.256;2023-03-25T06:02:39;100197.25;;;15.95;60.66
48517;BME280;34310;51.904;4.256;2023-03-25T06:05:11;100194.59;;;15.93;60.75
48517;BME280;34310;51.904;4.256;2023-03-25T06:07:42;100192.88;;;15.94;60.80
48517;BME280;34310;51.904;4.256;2023-03-25T06:10:12;100195.41;;;15.92;60.77
48517;BME280;34310;51.904;4.256;2023-03-25T06:12:44;100190.19;;;15.92;60.80
48517;BME280;34310;51.904;4.256;2023-03-25T06:15:13;100198.84;;;15.91;60.73
48517;BME280;34310;51.904;4.256;2023-03-25T06:17:40;100193.63;;;15.91;60.86
48517;BME280;34310;51.904;4.256;2023-03-25T06:20:10;100193.63;;;15.91;60.74
48517;BME280;34310;51.904;4.256;2023-03-25T06:22:40;100195.34;;;15.91;60.76
48517;BME280;34310;51.904;4.256;2023-03-25T06:25:10;100204.88;;;15.90;60.70
48517;BME280;34310;51.904;4.256;2023-03-25T06:27:38;100200.47;;;15.89;60.87
48517;BME280;34310;51.904;4.256;2023-03-25T06:30:11;100203.16;;;15.91;60.90
48517;BME280;34310;51.904;4.256;2023-03-25T06:32:39;100199.59;;;15.89;60.76
48517;BME280;34310;51.904;4.256;2023-03-25T06:35:09;100211.72;;;15.88;60.79
48517;BME280;34310;51.904;4.256;2023-03-25T06:37:38;100202.13;;;15.87;60.85
48517;BME280;34310;51.904;4.256;2023-03-25T06:40:06;100201.25;;;15.87;60.77
48517;BME280;34310;51.904;4.256;2023-03-25T06:42:34;100209.03;;;15.87;60.90
48517;BME280;34310;51.904;4.256;2023-03-25T06:45:01;100202.91;;;15.85;60.84
48517;BME280;34310;51.904;4.256;2023-03-25T06:47:31;100218.56;;;15.86;60.76
48517;BME280;34310;51.904;4.256;2023-03-25T06:49:58;100198.56;;;15.85;60.92
48517;BME280;34310;51.904;4.256;2023-03-25T06:52:25;100206.38;;;15.85;60.96
48517;BME280;34310;51.904;4.256;2023-03-25T06:54:53;100212.41;;;15.84;60.81
48517;BME280;34310;51.904;4.256;2023-03-25T06:57:20;100218.50;;;15.85;60.79
48517;BME280;34310;51.904;4.256;2023-03-25T06:59:47;100223.66;;;15.83;60.93
48517;BME280;34310;51.904;4.256;2023-03-25T07:02:15;100224.53;;;15.84;60.88
48517;BME280;34310;51.904;4.256;2023-03-25T07:04:43;100214.97;;;15.83;61.01
48517;BME280;34310;51.904;4.256;2023-03-25T07:07:10;100217.56;;;15.83;60.91
48517;BME280;34310;51.904;4.256;2023-03-25T07:09:37;100223.59;;;15.82;60.99
48517;BME280;34310;51.904;4.256;2023-03-25T07:12:05;100222.72;;;15.81;60.86
48517;BME280;34310;51.904;4.256;2023-03-25T07:14:35;100215.78;;;15.82;60.85
48517;BME280;34310;51.904;4.256;2023-03-25T07:17:02;100221.81;;;15.80;60.84
48517;BME280;34310;51.904;4.256;2023-03-25T07:19:29;100226.16;;;15.80;61.01
48517;BME280;34310;51.904;4.256;2023-03-25T07:21:57;100223.53;;;15.80;60.96
48517;BME280;34310;51.904;4.256;2023-03-25T07:24:24;100229.63;;;15.80;60.97
48517;BME280;34310;51.904;4.256;2023-03-25T07:26:52;100228.75;;;15.80;61.09
48517;BME280;34310;51.904;4.256;2023-03-25T07:29:19;100224.38;;;15.79;61.02
48517;BME280;34310;51.904;4.256;2023-03-25T07:31:46;100227.88;;;15.79;60.92
48517;BME280;34310;51.904;4.256;2023-03-25T07:34:14;100222.59;;;15.78;60.88
48517;BME280;34310;51.904;4.256;2023-03-25T07:36:41;100228.69;;;15.78;60.89
48517;BME280;34310;51.904;4.256;2023-03-25T07:39:09;100232.19;;;15.79;61.04
48517;BME280;34310;51.904;4.256;2023-03-25T07:41:36;100235.59;;;15.78;60.90
48517;BME280;34310;51.904;4.256;2023-03-25T07:44:03;100239.94;;;15.77;60.99
48517;BME280;34310;51.904;4.256;2023-03-25T07:46:31;100256.44;;;15.78;60.94
48517;BME280;34310;51.904;4.256;2023-03-25T07:48:58;100234.72;;;15.77;61.08
48517;BME280;34310;51.904;4.256;2023-03-25T07:51:25;100239.94;;;15.77;61.12
48517;BME280;34310;51.904;4.256;2023-03-25T07:53:53;100244.25;;;15.77;61.08
48517;BME280;34310;51.904;4.256;2023-03-25T07:56:20;100240.81;;;15.78;60.90
48517;BME280;34310;51.904;4.256;2023-03-25T07:58:48;100249.44;;;15.77;60.99
48517;BME280;34310;51.904;4.256;2023-03-25T08:01:15;100249.44;;;15.77;61.06
48517;BME280;34310;51.904;4.256;2023-03-25T08:03:43;100262.41;;;15.75;60.98
48517;BME280;34310;51.904;4.256;2023-03-25T08:06:10;100263.28;;;15.76;60.96
48517;BME280;34310;51.904;4.256;2023-03-25T08:08:38;100272.81;;;15.75;60.98
48517;BME280;34310;51.904;4.256;2023-03-25T08:11:05;100274.53;;;15.75;61.17
48517;BME280;34310;51.904;4.256;2023-03-25T08:13:32;100266.72;;;15.75;60.96
48517;BME280;34310;51.904;4.256;2023-03-25T08:16:00;100284.94;;;15.75;61.04
48517;BME280;34310;51.904;4.256;2023-03-25T08:18:27;100274.59;;;15.76;60.96
48517;BME280;34310;51.904;4.256;2023-03-25T08:20:55;100272.81;;;15.75;61.23
48517;BME280;34310;51.904;4.256;2023-03-25T08:23:22;100271.94;;;15.75;60.98
48517;BME280;34310;51.904;4.256;2023-03-25T08:25:53;100277.13;;;15.75;61.13
48517;BME280;34310;51.904;4.256;2023-03-25T08:28:21;100284.94;;;15.75;61.07
48517;BME280;34310;51.904;4.256;2023-03-25T08:30:50;100290.16;;;15.75;61.07
48517;BME280;34310;51.904;4.256;2023-03-25T08:33:25;100300.56;;;15.75;61.08
48517;BME280;34310;51.904;4.256;2023-03-25T08:36:01;100277.13;;;15.75;61.12
48517;BME280;34310;51.904;4.256;2023-03-25T08:38:28;100290.97;;;15.74;61.16
48517;BME280;34310;51.904;4.256;2023-03-25T08:41:01;100304.88;;;15.74;60.99
48517;BME280;34310;51.904;4.256;2023-03-25T08:43:28;100291.88;;;15.74;61.04
48517;BME280;34310;51.904;4.256;2023-03-25T08:45:56;100284.06;;;15.74;60.97
48517;BME280;34310;51.904;4.256;2023-03-25T08:48:23;100289.25;;;15.74;61.13
48517;BME280;34310;51.904;4.256;2023-03-25T08:50:50;100294.47;;;15.74;61.15
48517;BME280;34310;51.904;4.256;2023-03-25T08:53:19;100290.09;;;15.73;60.97
48517;BME280;34310;51.904;4.256;2023-03-25T08:55:49;100291.88;;;15.74;60.96
48517;BME280;34310;51.904;4.256;2023-03-25T08:58:17;100293.56;;;15.74;60.91
48517;BME280;34310;51.904;4.256;2023-03-25T09:00:45;100277.06;;;15.73;61.05
48517;BME280;34310;51.904;4.256;2023-03-25T09:03:13;100307.47;;;15.74;60.92
48517;BME280;34310;51.904;4.256;2023-03-25T09:05:40;100283.16;;;15.74;61.05
48517;BME280;34310;51.904;4.256;2023-03-25T09:08:07;100306.59;;;15.74;60.94
48517;BME280;34310;51.904;4.256;2023-03-25T09:10:35;100314.41;;;15.74;60.96
48517;BME280;34310;51.904;4.256;2023-03-25T09:13:04;100310.97;;;15.75;60.93
48517;BME280;34310;51.904;4.256;2023-03-25T09:15:32;100300.50;;;15.73;61.04
48517;BME280;34310;51.904;4.256;2023-03-25T09:17:59;100309.25;;;15.75;60.99
48517;BME280;34310;51.904;4.256;2023-03-25T09:20:27;100327.41;;;15.74;61.01
48517;BME280;34310;51.904;4.256;2023-03-25T09:22:54;100311.78;;;15.74;60.98
48517;BME280;34310;51.904;4.256;2023-03-25T09:25:21;100310.97;;;15.75;61.05
48517;BME280;34310;51.904;4.256;2023-03-25T09:27:49;100313.56;;;15.75;60.91
48517;BME280;34310;51.904;4.256;2023-03-25T09:30:17;100306.59;;;15.74;61.01
48517;BME280;34310;51.904;4.256;2023-03-25T09:32:44;100304.88;;;15.74;61.00
48517;BME280;34310;51.904;4.256;2023-03-25T09:35:12;100302.34;;;15.76;60.91
48517;BME280;34310;51.904;4.256;2023-03-25T09:37:39;100311.84;;;15.75;61.06
48517;BME280;34310;51.904;4.256;2023-03-25T09:40:08;100311.84;;;15.75;60.88
48517;BME280;34310;51.904;4.256;2023-03-25T09:43:02;100311.84;;;15.75;60.98
48517;BME280;34310;51.904;4.256;2023-03-25T09:45:42;100338.78;;;15.76;61.06
48517;BME280;34310;51.904;4.256;2023-03-25T09:50:59;100323.16;;;15.76;60.88
48517;BME280;34310;51.904;4.256;2023-03-25T09:56:20;100322.28;;;15.75;60.99
48517;BME280;34310;51.904;4.256;2023-03-25T09:58:57;100333.56;;;15.76;60.99
48517;BME280;34310;51.904;4.256;2023-03-25T10:01:36;100331.84;;;15.76;61.14
48517;BME280;34310;51.904;4.256;2023-03-25T10:12:43;100337.13;;;15.78;61.06
48517;BME280;34310;51.904;4.256;2023-03-25T10:17:53;100348.34;;;15.77;61.08
48517;BME280;34310;51.904;4.256;2023-03-25T10:20:48;100360.53;;;15.78;61.13
48517;BME280;34310;51.904;4.256;2023-03-25T10:26:05;100364.88;;;15.77;60.99
48517;BME280;34310;51.904;4.256;2023-03-25T10:28:43;100363.16;;;15.78;61.20
48517;BME280;34310;51.904;4.256;2023-03-25T10:31:21;100359.66;;;15.77;61.03
48517;BME280;34310;51.904;4.256;2023-03-25T10:33:56;100370.06;;;15.77;61.12
48517;BME280;34310;51.904;4.256;2023-03-25T10:36:48;100370.13;;;15.79;61.13
48517;BME280;34310;51.904;4.256;2023-03-25T10:39:20;100364.94;;;15.79;61.07
48517;BME280;34310;51.904;4.256;2023-03-25T10:42:01;100379.72;;;15.80;61.13
48517;BME280;34310;51.904;4.256;2023-03-25T10:44:29;100369.31;;;15.80;61.05
48517;BME280;34310;51.904;4.256;2023-03-25T10:47:06;100372.72;;;15.79;61.02
48517;BME280;34310;51.904;4.256;2023-03-25T10:49:35;100373.63;;;15.79;61.07
48517;BME280;34310;51.904;4.256;2023-03-25T10:52:03;100374.50;;;15.80;61.07
48517;BME280;34310;51.904;4.256;2023-03-25T10:54:34;100378.84;;;15.79;61.05
48517;BME280;34310;51.904;4.256;2023-03-25T10:57:06;100379.72;;;15.80;61.20
48517;BME280;34310;51.904;4.256;2023-03-25T11:02:25;100378.00;;;15.80;61.21
48517;BME280;34310;51.904;4.256;2023-03-25T11:05:01;100380.59;;;15.80;61.11
48517;BME280;34310;51.904;4.256;2023-03-25T11:07:39;100384.09;;;15.81;61.16
48517;BME280;34310;51.904;4.256;2023-03-25T11:12:40;100400.59;;;15.82;61.03
48517;BME280;34310;51.904;4.256;2023-03-25T11:17:41;100407.59;;;15.83;61.14
48517;BME280;34310;51.904;4.256;2023-03-25T11:20:21;100395.41;;;15.82;61.17
48517;BME280;34310;51.904;4.256;2023-03-25T11:22:53;100396.28;;;15.82;61.23
48517;BME280;34310;51.904;4.256;2023-03-25T11:25:29;100403.28;;;15.83;61.02
48517;BME280;34310;51.904;4.256;2023-03-25T11:28:03;100400.66;;;15.83;61.02
48517;BME280;34310;51.904;4.256;2023-03-25T11:30:32;100391.16;;;15.84;61.08
48517;BME280;34310;51.904;4.256;2023-03-25T11:33:04;100408.47;;;15.83;61.02
48517;BME280;34310;51.904;4.256;2023-03-25T11:35:37;100401.56;;;15.84;61.01
48517;BME280;34310;51.904;4.256;2023-03-25T11:38:28;100405.94;;;15.85;61.21
48517;BME280;34310;51.904;4.256;2023-03-25T11:40:58;100411.97;;;15.84;61.20
48517;BME280;34310;51.904;4.256;2023-03-25T11:43:37;100403.34;;;15.85;61.16
48517;BME280;34310;51.904;4.256;2023-03-25T11:46:14;100410.25;;;15.84;61.03
48517;BME280;34310;51.904;4.256;2023-03-25T11:48:44;100423.28;;;15.84;61.16
48517;BME280;34310;51.904;4.256;2023-03-25T11:51:28;100400.72;;;15.85;61.00
48517;BME280;34310;51.904;4.256;2023-03-25T11:54:01;100417.25;;;15.85;61.12
48517;BME280;34310;51.904;4.256;2023-03-25T11:56:37;100407.66;;;15.84;61.17
48517;BME280;34310;51.904;4.256;2023-03-25T12:02:29;100411.22;;;15.86;60.96
48517;BME280;34310;51.904;4.256;2023-03-25T12:05:01;100416.41;;;15.86;61.16
48517;BME280;34310;51.904;4.256;2023-03-25T12:07:29;100414.63;;;15.85;60.99
48517;BME280;34310;51.904;4.256;2023-03-25T12:10:11;100404.28;;;15.87;61.18
48517;BME280;34310;51.904;4.256;2023-03-25T12:15:40;100423.41;;;15.87;61.04
48517;BME280;34310;51.904;4.256;2023-03-25T12:18:37;100420.84;;;15.89;61.10
48517;BME280;34310;51.904;4.256;2023-03-25T12:46:21;100455.75;;;15.92;61.24
48517;BME280;34310;51.904;4.256;2023-03-25T12:57:02;100442.88;;;15.95;61.30
48517;BME280;34310;51.904;4.256;2023-03-25T13:08:03;100446.44;;;15.97;61.18
48517;BME280;34310;51.904;4.256;2023-03-25T13:10:35;100454.22;;;15.97;61.06
48517;BME280;34310;51.904;4.256;2023-03-25T13:13:16;100448.19;;;15.98;61.22
48517;BME280;34310;51.904;4.256;2023-03-25T13:15:49;100436.06;;;15.99;61.12
48517;BME280;34310;51.904;4.256;2023-03-25T13:18:26;100450.81;;;15.98;61.22
48517;BME280;34310;51.904;4.256;2023-03-25T13:21:37;100447.38;;;15.99;61.10
48517;BME280;34310;51.904;4.256;2023-03-25T13:27:15;100461.28;;;16.00;60.97
48517;BME280;34310;51.904;4.256;2023-03-25T13:29:47;100462.19;;;16.00;61.05
48517;BME280;34310;51.904;4.256;2023-03-25T13:32:36;100467.38;;;16.00;60.93
48517;BME280;34310;51.904;4.256;2023-03-25T13:36:07;100470.06;;;16.02;60.98
48517;BME280;34310;51.904;4.256;2023-03-25T13:38:25;100462.25;;;16.02;61.02
48517;BME280;34310;51.904;4.256;2023-03-25T13:43:55;100468.34;;;16.02;61.04
48517;BME280;34310;51.904;4.256;2023-03-25T13:46:33;100461.41;;;16.03;61.12
48517;BME280;34310;51.904;4.256;2023-03-25T13:49:14;100472.72;;;16.03;61.09
48517;BME280;34310;51.904;4.256;2023-03-25T13:51:44;100457.09;;;16.03;61.04
48517;BME280;34310;51.904;4.256;2023-03-25T13:54:26;100466.69;;;16.04;61.24
48517;BME280;34310;51.904;4.256;2023-03-25T14:11:21;100485.94;;;16.08;61.26
48517;BME280;34310;51.904;4.256;2023-03-25T14:13:57;100484.22;;;16.08;61.26
48517;BME280;34310;51.904;4.256;2023-03-25T14:16:36;100496.41;;;16.09;61.23
48517;BME280;34310;51.904;4.256;2023-03-25T14:19:13;100488.59;;;16.09;61.15
48517;BME280;34310;51.904;4.256;2023-03-25T14:21:47;100501.69;;;16.11;61.20
48517;BME280;34310;51.904;4.256;2023-03-25T14:26:53;100514.78;;;16.13;61.25
48517;BME280;34310;51.904;4.256;2023-03-25T14:29:41;100507.03;;;16.14;61.25
48517;BME280;34310;51.904;4.256;2023-03-25T14:32:33;100509.69;;;16.16;61.32
48517;BME280;34310;51.904;4.256;2023-03-25T14:43:32;100526.38;;;16.19;61.31
48517;BME280;34310;51.904;4.256;2023-03-25T14:48:52;100523.84;;;16.21;61.24
48517;BME280;34310;51.904;4.256;2023-03-25T14:54:29;100511.75;;;16.23;61.24
48517;BME280;34310;51.904;4.256;2023-03-25T14:57:21;100524.03;;;16.25;61.37
48517;BME280;34310;51.904;4.256;2023-03-25T14:59:54;100518.75;;;16.24;61.32
48517;BME280;34310;51.904;4.256;2023-03-25T15:02:26;100520.53;;;16.25;61.29
48517;BME280;34310;51.904;4.256;2023-03-25T15:05:01;100532.72;;;16.26;61.39
48517;BME280;34310;51.904;4.256;2023-03-25T15:10:35;100527.66;;;16.29;61.24
48517;BME280;34310;51.904;4.256;2023-03-25T15:13:19;100551.97;;;16.29;61.14
48517;BME280;34310;51.904;4.256;2023-03-25T15:26:13;100550.31;;;16.31;61.03
48517;BME280;34310;51.904;4.256;2023-03-25T15:28:47;100546.00;;;16.32;61.25
48517;BME280;34310;51.904;4.256;2023-03-25T15:31:38;100552.09;;;16.32;61.09
48517;BME280;34310;51.904;4.256;2023-03-25T15:37:30;100553.88;;;16.33;61.14
48517;BME280;34310;51.904;4.256;2023-03-25T15:57:46;100584.38;;;16.36;61.12
48517;BME280;34310;51.904;4.256;2023-03-25T16:00:12;100572.19;;;16.35;60.99
48517;BME280;34310;51.904;4.256;2023-03-25T16:05:18;100577.47;;;16.36;61.09
48517;BME280;34310;51.904;4.256;2023-03-25T16:07:47;100575.69;;;16.35;61.10
48517;BME280;34310;51.904;4.256;2023-03-25T16:10:29;100579.19;;;16.36;60.98
48517;BME280;34310;51.904;4.256;2023-03-25T16:13:22;100583.56;;;16.37;60.85
48517;BME280;34310;51.904;4.256;2023-03-25T16:15:57;100594.88;;;16.37;60.86
48517;BME280;34310;51.904;4.256;2023-03-25T16:18:25;100592.28;;;16.37;60.95
48517;BME280;34310;51.904;4.256;2023-03-25T16:20:58;100589.66;;;16.37;60.84
48517;BME280;34310;51.904;4.256;2023-03-25T16:23:27;100594.88;;;16.37;60.88